Time;durP1;ratioP1;P1;durP2;ratioP2;P2;SDS_P1;SDS_P2;PMS_P1;PMS_P2;Temp;Humidity;BMP_temperature;BMP_pressure;BME280_temperature;BME280_humidity;BME280_pressure;Samples;Min_cycle;Max_cycle;Signal;HPM_P1;HPM_P2
2021/12/16 00:01:47;;;;;;;44.03;34.08;;;;;;;10.06;100.00;103319.09;5253637;28;20053;-72
2021/12/16 00:07:33;;;;;;;45.90;32.55;;;;;;;10.08;100.00;103330.34;5251981;28;20107;-71
2021/12/16 00:10:21;;;;;;;43.47;32.72;;;;;;;10.06;100.00;103324.31;5249729;28;20036;-72
2021/12/16 00:30:43;;;;;;;44.03;32.63;;;;;;;10.01;100.00;103328.06;5251857;28;20036;-71
2021/12/16 00:32:52;;;;;;;47.30;33.05;;;;;;;10.01;100.00;103328.91;5253396;28;20568;-71
2021/12/16 00:35:23;;;;;;;47.50;34.42;;;;;;;10.02;100.00;103325.38;5252571;28;20056;-72
2021/12/16 00:37:54;;;;;;;43.83;33.13;;;;;;;9.99;100.00;103326.34;5251936;28;20447;-72
2021/12/16 00:40:26;;;;;;;45.35;32.58;;;;;;;10.03;100.00;103329.69;5253421;28;20023;-72
2021/12/16 00:43:10;;;;;;;45.08;34.42;;;;;;;9.99;100.00;103328.13;5252769;28;20041;-72
2021/12/16 00:45:56;;;;;;;44.70;33.13;;;;;;;9.99;100.00;103328.13;5253703;28;20031;-71
2021/12/16 00:48:59;;;;;;;46.90;33.92;;;;;;;9.98;100.00;103329.03;5252978;28;20293;-71
2021/12/16 00:54:13;;;;;;;44.85;33.35;;;;;;;9.96;100.00;103334.34;5253612;28;20029;-71
2021/12/16 00:56:51;;;;;;;43.95;32.33;;;;;;;10.01;100.00;103322.84;5253356;28;20071;-71
2021/12/16 00:59:25;;;;;;;43.92;32.53;;;;;;;9.97;100.00;103330.81;5255232;28;20032;-71
2021/12/16 01:02:15;;;;;;;42.58;33.10;;;;;;;9.95;100.00;103326.53;5255334;28;20032;-72
2021/12/16 01:07:54;;;;;;;43.40;33.17;;;;;;;10.01;100.00;103335.94;5256992;28;20128;-71
2021/12/16 01:42:20;;;;;;;41.53;30.47;;;;;;;10.04;100.00;103349.75;5237988;28;20029;-72
2021/12/16 01:48:00;;;;;;;40.78;31.33;;;;;;;9.98;100.00;103353.44;5256422;28;20029;-72
2021/12/16 01:50:35;;;;;;;43.80;32.47;;;;;;;10.00;100.00;103350.78;5256472;28;20036;-72
2021/12/16 01:56:35;;;;;;;44.90;31.17;;;;;;;10.03;100.00;103366.34;5222463;28;20048;-72
2021/12/16 01:59:09;;;;;;;40.65;31.65;;;;;;;10.00;100.00;103366.50;5254979;28;20033;-72
2021/12/16 02:01:41;;;;;;;45.67;32.88;;;;;;;9.99;100.00;103362.16;5255279;28;20029;-71
2021/12/16 02:04:26;;;;;;;41.92;31.17;;;;;;;10.04;100.00;103367.19;5256138;28;20060;-72
2021/12/16 02:07:07;;;;;;;40.72;31.67;;;;;;;9.99;100.00;103363.00;5255923;28;20468;-72
2021/12/16 02:09:43;;;;;;;42.30;31.35;;;;;;;9.98;100.00;103368.31;5254379;28;20029;-72
2021/12/16 02:32:12;;;;;;;43.50;31.67;;;;;;;9.99;100.00;103375.25;5254525;28;20534;-71
2021/12/16 02:35:10;;;;;;;44.00;30.83;;;;;;;10.06;100.00;103379.31;5255156;28;20495;-71
2021/12/16 02:37:45;;;;;;;40.15;31.30;;;;;;;10.03;100.00;103384.69;5256163;28;20453;-72
2021/12/16 02:40:18;;;;;;;39.95;31.63;;;;;;;10.02;100.00;103387.38;5254529;28;20025;-71
2021/12/16 02:43:27;;;;;;;42.28;30.85;;;;;;;10.00;100.00;103382.22;5254665;28;20028;-71
2021/12/16 02:48:44;;;;;;;40.28;30.15;;;;;;;9.98;100.00;103387.50;5254652;28;20051;-71
2021/12/16 02:51:21;;;;;;;38.15;30.10;;;;;;;10.03;100.00;103386.44;5254434;28;20037;-71
2021/12/16 02:54:02;;;;;;;38.20;28.90;;;;;;;10.08;100.00;103384.50;5254177;28;20080;-71
2021/12/16 02:56:36;;;;;;;41.03;30.40;;;;;;;9.96;100.00;103393.72;5255117;28;20474;-72
2021/12/16 02:59:08;;;;;;;38.38;30.23;;;;;;;9.94;100.00;103396.41;5253735;28;20494;-72
2021/12/16 03:01:48;;;;;;;37.80;29.83;;;;;;;10.05;100.00;103400.34;5253697;28;20040;-72
2021/12/16 03:04:21;;;;;;;38.70;29.83;;;;;;;9.97;100.00;103393.66;5254066;28;20049;-72
2021/12/16 03:06:56;;;;;;;38.63;29.92;;;;;;;9.93;100.00;103389.47;5252656;28;20053;-72
2021/12/16 03:10:04;;;;;;;38.40;29.15;;;;;;;9.97;100.00;103390.19;5253655;28;20033;-72
2021/12/16 03:12:51;;;;;;;36.38;28.38;;;;;;;10.03;100.00;103384.69;5254365;28;20033;-71
2021/12/16 03:21:20;;;;;;;40.90;29.67;;;;;;;10.02;100.00;103390.84;5253974;28;20090;-72
2021/12/16 03:29:35;;;;;;;36.13;29.63;;;;;;;9.91;100.00;103382.59;5254470;28;20048;-71
2021/12/16 03:37:45;;;;;;;43.90;31.95;;;;;;;9.96;100.00;103393.72;5254148;28;20063;-71
2021/12/16 03:40:17;;;;;;;40.38;30.88;;;;;;;9.95;100.00;103390.25;5254050;28;20099;-72
2021/12/16 03:42:53;;;;;;;44.13;31.00;;;;;;;9.95;100.00;103389.41;5254506;28;20049;-71
2021/12/16 03:48:59;;;;;;;40.33;28.90;;;;;;;10.15;100.00;103385.94;5254007;28;20041;-72
2021/12/16 03:51:53;;;;;;;35.70;28.27;;;;;;;9.98;100.00;103397.97;5253901;28;20021;-72
2021/12/16 03:54:32;;;;;;;38.50;29.80;;;;;;;10.04;100.00;103401.25;5253327;28;20333;-72
2021/12/16 03:57:08;;;;;;;38.92;29.35;;;;;;;9.99;100.00;103406.69;5253157;28;20028;-72
2021/12/16 03:59:39;;;;;;;37.00;28.95;;;;;;;9.93;100.00;103407.81;5254094;28;20119;-71
2021/12/16 04:02:16;;;;;;;42.65;30.30;;;;;;;9.98;100.00;103407.59;5253687;28;20025;-71
2021/12/16 04:04:51;;;;;;;37.88;30.85;;;;;;;9.95;100.00;103415.59;5252894;28;20045;-71
2021/12/16 04:07:26;;;;;;;39.05;29.75;;;;;;;9.95;100.00;103416.44;5253206;28;20036;-71
2021/12/16 04:09:58;;;;;;;39.65;29.45;;;;;;;9.93;100.00;103406.94;5252698;28;20039;-72
2021/12/16 04:12:30;;;;;;;39.10;30.42;;;;;;;9.97;100.00;103412.00;5253962;28;20017;-72
2021/12/16 04:15:05;;;;;;;39.67;29.63;;;;;;;9.98;100.00;103410.22;5254387;28;20394;-71
2021/12/16 04:17:36;;;;;;;36.55;29.13;;;;;;;9.91;100.00;103399.13;5253607;28;20492;-72
2021/12/16 04:20:12;;;;;;;41.60;29.33;;;;;;;9.97;100.00;103408.53;5250896;28;20104;-71
2021/12/16 04:22:46;;;;;;;39.75;29.60;;;;;;;9.97;100.00;103403.28;5253344;28;20064;-71
2021/12/16 04:25:39;;;;;;;36.60;29.13;;;;;;;9.99;100.00;103406.69;5253759;28;20028;-71
2021/12/16 04:28:25;;;;;;;36.40;27.50;;;;;;;10.06;100.00;103412.53;5253773;28;20108;-71
2021/12/16 04:30:58;;;;;;;41.22;29.05;;;;;;;9.95;100.00;103411.19;5253578;28;20467;-71
2021/12/16 04:33:30;;;;;;;38.45;28.95;;;;;;;9.92;100.00;103410.47;5252710;28;20043;-72
2021/12/16 04:36:02;;;;;;;34.87;29.13;;;;;;;9.94;100.00;103403.41;5253467;28;20025;-71
2021/12/16 04:38:34;;;;;;;42.45;29.33;;;;;;;9.95;100.00;103405.94;5251810;28;20298;-71
2021/12/16 04:41:12;;;;;;;37.53;28.90;;;;;;;9.94;100.00;103404.25;5253862;28;20033;-71
2021/12/16 04:43:53;;;;;;;39.83;29.08;;;;;;;9.98;100.00;103413.69;5254079;28;20382;-71
2021/12/16 04:46:27;;;;;;;39.90;28.80;;;;;;;9.96;100.00;103401.56;5252673;28;20029;-71
2021/12/16 04:49:00;;;;;;;41.55;28.77;;;;;;;9.85;100.00;103396.78;5252703;28;20048;-71
2021/12/16 04:51:35;;;;;;;39.22;29.08;;;;;;;9.89;100.00;103401.00;5251108;28;20032;-71
2021/12/16 04:54:08;;;;;;;39.33;30.25;;;;;;;9.80;100.00;103396.09;5251179;28;20029;-72
2021/12/16 04:56:40;;;;;;;40.15;28.75;;;;;;;9.79;100.00;103397.03;5250943;28;20441;-72
2021/12/16 04:59:16;;;;;;;43.67;30.10;;;;;;;9.84;100.00;103399.47;5252987;28;20506;-72
2021/12/16 05:01:57;;;;;;;40.05;29.60;;;;;;;9.81;100.00;103404.81;5251573;28;20393;-71
2021/12/16 05:04:29;;;;;;;39.15;28.92;;;;;;;9.71;100.00;103401.72;5252624;28;20567;-71
2021/12/16 05:07:00;;;;;;;42.13;28.92;;;;;;;9.73;100.00;103402.50;5252293;28;20029;-71
2021/12/16 05:12:20;;;;;;;43.33;28.40;;;;;;;9.79;100.00;103402.25;5250993;28;20078;-71
2021/12/16 05:14:51;;;;;;;41.83;29.73;;;;;;;9.63;100.00;103401.19;5252416;28;20220;-71
2021/12/16 05:17:30;;;;;;;38.97;29.48;;;;;;;9.63;100.00;103398.56;5252467;28;20025;-71
2021/12/16 05:20:07;;;;;;;41.50;28.73;;;;;;;9.60;100.00;103402.16;5251920;28;20023;-71
2021/12/16 05:28:22;;;;;;;37.78;27.27;;;;;;;9.50;100.00;103412.13;5253036;28;20036;-71
2021/12/16 05:30:54;;;;;;;;;;;;;;;10.08;100.00;103413.31;5254107;28;20029;-71
2021/12/16 05:33:27;;;;;;;32.47;26.13;;;;;;;9.42;100.00;103415.97;5250523;28;19932;-71
2021/12/16 05:35:58;;;;;;;39.67;27.95;;;;;;;9.37;100.00;103421.38;5253384;28;20472;-71
2021/12/16 05:38:30;;;;;;;34.35;27.30;;;;;;;9.27;100.00;103425.25;5251762;28;20082;-71
2021/12/16 05:41:04;;;;;;;39.03;27.80;;;;;;;9.22;100.00;103419.34;5252091;28;20072;-71
2021/12/16 05:43:37;;;;;;;36.63;27.15;;;;;;;9.14;100.00;103424.00;5252520;28;20051;-71
2021/12/16 05:46:10;;;;;;;35.35;27.52;;;;;;;9.12;100.00;103426.66;5254644;28;20021;-71
2021/12/16 05:48:45;;;;;;;32.92;26.10;;;;;;;9.10;100.00;103430.28;5256588;28;20028;-71
2021/12/16 05:51:23;;;;;;;35.78;27.05;;;;;;;9.06;100.00;103439.16;5256454;28;20025;-71
2021/12/16 05:53:55;;;;;;;38.50;26.98;;;;;;;8.93;100.00;103442.19;5255605;28;20032;-72
2021/12/16 05:56:27;;;;;;;31.67;25.35;;;;;;;8.87;100.00;103438.97;5239025;28;20026;-71
2021/12/16 05:58:59;;;;;;;34.25;26.67;;;;;;;8.81;100.00;103440.00;5255992;28;20025;-71
2021/12/16 06:01:34;;;;;;;33.67;25.70;;;;;;;8.78;100.00;103455.81;5255587;28;20035;-71
2021/12/16 06:04:06;;;;;;;34.53;25.80;;;;;;;8.69;100.00;103458.75;5256593;28;20123;-71
2021/12/16 06:06:38;;;;;;;33.65;25.40;;;;;;;8.69;100.00;103453.53;5254770;28;20545;-71
2021/12/16 06:09:10;;;;;;;34.17;25.63;;;;;;;8.55;100.00;103454.00;5256489;28;20025;-71
2021/12/16 06:11:43;;;;;;;32.90;25.90;;;;;;;8.50;100.00;103471.59;5254582;28;20025;-71
2021/12/16 06:14:23;;;;;;;33.63;25.48;;;;;;;8.52;100.00;103475.88;5255984;28;20113;-71
2021/12/16 06:28:36;;;;;;;34.58;24.85;;;;;;;8.27;100.00;103472.34;5251621;28;20111;-71
2021/12/16 06:31:08;;;;;;;30.80;23.27;;;;;;;8.18;100.00;103473.50;5255546;28;20078;-71
2021/12/16 06:33:39;;;;;;;32.13;23.77;;;;;;;8.18;100.00;103477.84;5253711;28;20024;-71
2021/12/16 06:36:10;;;;;;;33.13;25.55;;;;;;;8.16;100.00;103483.13;5255839;28;20465;-71
2021/12/16 06:38:42;;;;;;;32.47;26.13;;;;;;;8.05;100.00;103480.84;5255736;28;20025;-71
2021/12/16 06:41:14;;;;;;;33.13;24.00;;;;;;;8.10;100.00;103477.25;5255922;28;20075;-71
2021/12/16 06:43:48;;;;;;;31.00;23.97;;;;;;;8.02;100.00;103474.88;5255071;28;20028;-71
2021/12/16 06:46:21;;;;;;;34.95;24.45;;;;;;;7.99;100.00;103477.59;5253576;28;20021;-71
2021/12/16 06:48:57;;;;;;;31.08;22.67;;;;;;;7.91;100.00;103479.59;5238025;28;20025;-71
2021/12/16 06:51:47;;;;;;;31.17;24.17;;;;;;;7.85;100.00;103483.25;5254302;28;20033;-71
2021/12/16 06:54:42;;;;;;;31.80;24.05;;;;;;;7.87;100.00;103491.03;5254153;28;20220;-72
2021/12/16 07:05:28;;;;;;;28.63;23.25;;;;;;;7.71;100.00;103486.28;5254498;28;20052;-71
2021/12/16 07:08:02;;;;;;;31.35;24.23;;;;;;;7.64;100.00;103489.97;5255138;28;20028;-71
2021/12/16 07:10:34;;;;;;;31.38;23.73;;;;;;;7.61;100.00;103484.84;5252282;28;20479;-71
2021/12/16 07:13:15;;;;;;;29.95;23.83;;;;;;;7.63;100.00;103503.06;5255153;28;20106;-71
2021/12/16 07:15:48;;;;;;;30.50;23.50;;;;;;;7.54;100.00;103509.44;5237546;28;20025;-71
2021/12/16 07:18:19;;;;;;;29.17;23.30;;;;;;;7.56;100.00;103505.00;5254467;28;20074;-71
2021/12/16 07:20:50;;;;;;;28.77;22.13;;;;;;;7.53;100.00;103508.53;5252573;28;20391;-71
2021/12/16 07:23:22;;;;;;;37.35;26.13;;;;;;;7.56;100.00;103520.66;5231946;28;20052;-71
2021/12/16 07:25:54;;;;;;;33.95;24.65;;;;;;;7.50;100.00;103529.53;5253023;28;20029;-71
2021/12/16 07:28:27;;;;;;;28.90;23.70;;;;;;;7.50;100.00;103532.13;5252346;28;20032;-71
2021/12/16 07:30:59;;;;;;;28.40;22.25;;;;;;;7.43;100.00;103532.34;5253040;28;20033;-71
2021/12/16 07:33:30;;;;;;;33.08;23.63;;;;;;;7.31;100.00;103533.53;5252492;28;20032;-71
2021/12/16 07:36:02;;;;;;;33.25;24.08;;;;;;;7.35;100.00;103548.22;5253268;28;20037;-71
2021/12/16 07:38:34;;;;;;;30.90;24.30;;;;;;;7.36;100.00;103547.31;5251621;28;20103;-71
2021/12/16 07:41:06;;;;;;;32.40;23.67;;;;;;;7.30;100.00;103553.53;5249569;28;20312;-71
2021/12/16 07:46:27;;;;;;;32.03;24.55;;;;;;;7.21;100.00;103558.16;5245760;28;20035;-71
2021/12/16 07:48:59;;;;;;;28.00;22.55;;;;;;;7.21;100.00;103560.78;5248502;28;20025;-71
2021/12/16 07:51:30;;;;;;;30.60;22.35;;;;;;;7.19;100.00;103558.19;5245289;28;20033;-71
2021/12/16 07:54:03;;;;;;;32.22;23.27;;;;;;;7.19;100.00;103572.97;5242311;28;20521;-71
2021/12/16 07:56:34;;;;;;;32.03;24.67;;;;;;;7.14;100.00;103585.31;5242158;28;20057;-71
2021/12/16 07:59:07;;;;;;;29.88;24.05;;;;;;;7.10;100.00;103587.13;5243336;28;20125;-71
2021/12/16 08:01:40;;;;;;;27.30;23.05;;;;;;;7.19;100.00;103593.84;5235336;28;20086;-71
2021/12/16 08:04:21;;;;;;;27.55;22.80;;;;;;;7.15;100.00;103594.81;5247088;28;20046;-71
2021/12/16 08:06:53;;;;;;;28.95;22.98;;;;;;;7.07;100.00;103597.63;5247115;28;20026;-71
2021/12/16 08:09:25;;;;;;;27.83;22.23;;;;;;;7.10;100.00;103594.09;5246936;28;20029;-71
2021/12/16 08:11:58;;;;;;;28.58;22.40;;;;;;;7.07;100.00;103589.81;5246082;28;20056;-71
2021/12/16 08:14:29;;;;;;;27.73;22.52;;;;;;;7.06;100.00;103603.75;5248991;28;20063;-71
2021/12/16 08:17:00;;;;;;;30.45;23.35;;;;;;;6.98;100.00;103606.56;5252695;28;20720;-71
2021/12/16 08:19:32;;;;;;;31.58;23.20;;;;;;;6.98;100.00;103614.38;5251731;28;20113;-71
2021/12/16 08:22:05;;;;;;;32.90;23.15;;;;;;;6.97;100.00;103617.88;5252517;28;20397;-71
2021/12/16 08:24:36;;;;;;;39.90;24.08;;;;;;;6.97;100.00;103606.56;5248355;28;20305;-71
2021/12/16 08:27:09;;;;;;;36.95;23.80;;;;;;;6.97;100.00;103611.78;5249736;28;20485;-71
2021/12/16 08:29:40;;;;;;;32.80;23.93;;;;;;;6.97;100.00;103620.50;5250673;28;20086;-71
2021/12/16 08:32:12;;;;;;;32.33;22.35;;;;;;;6.92;100.00;103624.09;5249585;28;20263;-71
2021/12/16 08:34:45;;;;;;;32.50;22.48;;;;;;;6.89;100.00;103632.81;5250146;28;20108;-71
2021/12/16 08:37:17;;;;;;;29.10;22.60;;;;;;;6.94;100.00;103637.94;5251847;28;20043;-71
2021/12/16 08:39:49;;;;;;;30.85;24.00;;;;;;;6.96;100.00;103636.16;5249414;28;20024;-71
2021/12/16 08:42:20;;;;;;;34.53;23.83;;;;;;;6.97;100.00;103620.50;5247783;28;20036;-71
2021/12/16 08:44:51;;;;;;;34.75;22.67;;;;;;;7.00;100.00;103636.03;5249853;28;20132;-71
2021/12/16 08:47:24;;;;;;;33.45;24.50;;;;;;;7.02;100.00;103630.78;5249448;28;20059;-71
2021/12/16 08:49:55;;;;;;;34.28;23.77;;;;;;;7.10;100.00;103641.03;5251291;28;20079;-71
2021/12/16 08:52:27;;;;;;;34.38;24.20;;;;;;;7.05;100.00;103628.97;5249526;28;20021;-71
2021/12/16 08:54:59;;;;;;;35.72;25.33;;;;;;;7.07;100.00;103639.34;5250280;28;20144;-71
2021/12/16 08:57:30;;;;;;;34.88;25.95;;;;;;;7.14;100.00;103645.25;5248791;28;20119;-71
2021/12/16 09:00:08;;;;;;;33.88;23.77;;;;;;;7.20;100.00;103645.97;5251823;28;20566;-71
2021/12/16 09:02:40;;;;;;;36.05;25.17;;;;;;;7.11;100.00;103656.63;5251128;28;20478;-71
2021/12/16 09:05:11;;;;;;;37.17;27.00;;;;;;;7.21;100.00;103662.47;5250387;28;20048;-71
2021/12/16 09:07:46;;;;;;;40.45;28.65;;;;;;;7.29;100.00;103670.94;5234966;28;20028;-71
2021/12/16 09:10:27;;;;;;;39.60;27.35;;;;;;;7.34;100.00;103663.84;5251378;28;20021;-71
2021/12/16 09:13:04;;;;;;;35.42;26.58;;;;;;;7.35;100.00;103665.59;5250053;28;20044;-71
2021/12/16 09:15:41;;;;;;;35.35;26.17;;;;;;;7.39;100.00;103662.00;5249749;28;20028;-71
2021/12/16 09:18:14;;;;;;;37.50;25.70;;;;;;;7.38;100.00;103660.25;5250253;28;20090;-71
2021/12/16 09:20:46;;;;;;;34.92;27.30;;;;;;;7.41;100.00;103668.00;5253784;28;20686;-72
2021/12/16 09:23:17;;;;;;;35.50;26.67;;;;;;;7.43;100.00;103666.22;5254287;28;20406;-71
2021/12/16 09:25:50;;;;;;;36.10;28.17;;;;;;;7.61;100.00;103682.28;5256119;28;20017;-71
2021/12/16 09:28:23;;;;;;;40.70;27.60;;;;;;;7.60;100.00;103673.59;5252734;28;20534;-71
2021/12/16 09:30:55;;;;;;;36.25;26.85;;;;;;;7.59;100.00;103671.03;5256987;28;20140;-71
2021/12/16 09:33:28;;;;;;;37.95;28.88;;;;;;;7.69;100.00;103665.53;5255462;28;20028;-71
2021/12/16 09:36:00;;;;;;;;;;;;;;;8.21;100.00;103668.41;5257649;28;20021;-71
2021/12/16 09:38:31;;;;;;;38.35;26.63;;;;;;;7.77;100.00;103668.78;5255215;28;19923;-71
2021/12/16 09:41:03;;;;;;;36.78;27.90;;;;;;;7.84;100.00;103672.09;5254866;28;20027;-71
2021/12/16 09:43:39;;;;;;;39.78;29.88;;;;;;;7.90;100.00;103678.88;5256312;28;20433;-72
2021/12/16 09:46:19;;;;;;;42.35;30.13;;;;;;;8.03;100.00;103680.22;5253896;28;20021;-71
2021/12/16 09:48:52;;;;;;;40.15;30.40;;;;;;;8.04;100.00;103676.72;5253026;28;20095;-71
2021/12/16 09:51:26;;;;;;;48.03;30.25;;;;;;;8.13;100.00;103678.22;5255464;28;20033;-71
2021/12/16 09:54:04;;;;;;;41.90;31.05;;;;;;;8.12;100.00;103679.97;5255133;28;20036;-71
2021/12/16 09:56:39;;;;;;;41.80;31.95;;;;;;;8.17;100.00;103678.06;5255617;28;20036;-71
2021/12/16 09:59:13;;;;;;;42.50;31.50;;;;;;;8.18;100.00;103677.19;5253518;28;20014;-71
2021/12/16 10:01:47;;;;;;;45.10;34.22;;;;;;;8.29;100.00;103672.47;5255516;28;20028;-72
2021/12/16 10:04:21;;;;;;;53.60;37.78;;;;;;;8.50;100.00;103671.03;5255413;28;20426;-71
2021/12/16 10:06:56;;;;;;;52.40;35.40;;;;;;;8.46;100.00;103685.09;5255859;28;20074;-71
2021/12/16 10:09:29;;;;;;;50.33;39.50;;;;;;;8.48;100.00;103691.09;5255307;28;20029;-71
2021/12/16 10:12:08;;;;;;;54.95;42.35;;;;;;;8.66;100.00;103678.38;5253710;28;20029;-71
2021/12/16 10:17:38;;;;;;;51.72;41.25;;;;;;;8.87;100.00;103687.31;5252567;28;20541;-72
2021/12/16 10:20:29;;;;;;;52.33;41.42;;;;;;;8.99;100.00;103679.06;5255141;28;20037;-71
2021/12/16 10:23:09;;;;;;;57.80;43.67;;;;;;;9.23;100.00;103674.78;5255027;28;20028;-71
2021/12/16 10:25:44;;;;;;;58.80;43.90;;;;;;;9.25;100.00;103686.91;5254174;28;20473;-71
2021/12/16 10:28:23;;;;;;;57.53;43.90;;;;;;;9.38;100.00;103681.25;5251878;28;20025;-71
2021/12/16 10:31:03;;;;;;;57.28;44.72;;;;;;;9.54;100.00;103678.94;5250728;28;20402;-71
2021/12/16 10:33:43;;;;;;;60.38;44.65;;;;;;;9.67;100.00;103673.22;5252794;28;20112;-71
2021/12/16 10:36:27;;;;;;;60.40;44.03;;;;;;;9.87;100.00;103674.28;5253645;28;20021;-71
2021/12/16 10:39:05;;;;;;;57.20;42.50;;;;;;;9.87;100.00;103676.91;5254725;28;20429;-71
2021/12/16 10:41:42;;;;;;;61.50;41.42;;;;;;;9.97;100.00;103671.28;5253956;28;20532;-71
2021/12/16 10:44:22;;;;;;;54.08;41.15;;;;;;;10.14;100.00;103670.63;5253539;28;20436;-71
2021/12/16 10:47:00;;;;;;;55.20;40.15;;;;;;;10.24;100.00;103669.38;5254055;28;20035;-71
2021/12/16 10:49:35;;;;;;;49.83;37.03;;;;;;;10.29;100.00;103665.75;5253437;28;20033;-71
2021/12/16 10:52:14;;;;;;;45.20;35.88;;;;;;;10.46;100.00;103677.28;5252428;28;20037;-71
2021/12/16 10:54:50;;;;;;;44.85;34.67;;;;;;;10.57;100.00;103673.38;5253756;28;20025;-71
2021/12/16 10:57:25;;;;;;;44.97;34.03;;;;;;;10.66;100.00;103673.88;5250089;28;20051;-71
2021/12/16 11:00:07;;;;;;;44.10;33.30;;;;;;;10.73;100.00;103671.03;5235966;28;20445;-71
2021/12/16 11:02:40;;;;;;;38.08;31.88;;;;;;;10.78;100.00;103674.31;5250142;28;20315;-72
2021/12/16 11:05:23;;;;;;;41.28;29.95;;;;;;;10.90;100.00;103674.66;5252203;28;20052;-71
2021/12/16 11:07:58;;;;;;;36.50;28.40;;;;;;;10.87;100.00;103676.53;5254831;28;20047;-71
2021/12/16 11:10:35;;;;;;;39.70;28.17;;;;;;;10.99;100.00;103683.94;5254246;28;20020;-71
2021/12/16 11:13:09;;;;;;;39.92;27.52;;;;;;;11.06;100.00;103681.88;5251059;28;20033;-72
2021/12/16 11:15:50;;;;;;;36.42;25.52;;;;;;;11.14;100.00;103688.53;5250048;28;20090;-72
2021/12/16 11:18:24;;;;;;;36.28;28.17;;;;;;;11.17;100.00;103680.53;5249166;28;20041;-72
2021/12/16 11:21:09;;;;;;;36.88;27.45;;;;;;;11.32;100.00;103684.25;5246315;28;20108;-72
2021/12/16 11:23:43;;;;;;;33.65;25.17;;;;;;;11.27;100.00;103695.88;5249748;28;20071;-72
2021/12/16 11:26:31;;;;;;;35.28;24.73;;;;;;;11.38;100.00;103686.63;5249957;28;20029;-72
2021/12/16 11:29:02;;;;;;;31.30;23.95;;;;;;;11.19;100.00;103683.94;5253784;28;20540;-72
2021/12/16 11:31:34;;;;;;;28.23;21.38;;;;;;;11.24;100.00;103689.00;5251296;28;20028;-71
2021/12/16 11:34:09;;;;;;;27.50;21.52;;;;;;;11.41;100.00;103688.28;5254036;28;20120;-72
2021/12/16 11:36:46;;;;;;;30.35;21.10;;;;;;;11.36;100.00;103695.47;5254160;28;20031;-72
2021/12/16 11:39:24;;;;;;;32.85;21.55;;;;;;;11.40;100.00;103676.06;5250083;28;20036;-71
2021/12/16 11:42:01;;;;;;;28.10;21.50;;;;;;;11.37;100.00;103676.22;5251963;28;20037;-71
2021/12/16 11:44:37;;;;;;;27.35;21.52;;;;;;;11.42;100.00;103685.59;5252198;28;20427;-71
2021/12/16 11:47:23;;;;;;;28.58;20.23;;;;;;;11.49;100.00;103682.72;5251988;28;20063;-72
2021/12/16 11:50:05;;;;;;;27.42;20.33;;;;;;;11.47;100.00;103666.16;5252401;28;20036;-71
2021/12/16 11:52:39;;;;;;;25.73;20.38;;;;;;;11.38;100.00;103678.75;5253008;28;20029;-72
2021/12/16 11:55:15;;;;;;;24.88;19.77;;;;;;;11.40;100.00;103682.19;5251462;28;20021;-72
2021/12/16 11:57:53;;;;;;;27.35;19.83;;;;;;;11.54;100.00;103676.31;5251092;28;20037;-72
2021/12/16 12:00:31;;;;;;;24.13;19.45;;;;;;;11.68;100.00;103673.09;5250309;28;20025;-72
2021/12/16 12:03:13;;;;;;;23.58;18.40;;;;;;;11.77;100.00;103672.69;5253262;28;20043;-72
2021/12/16 12:05:50;;;;;;;25.13;17.80;;;;;;;11.87;100.00;103670.53;5252080;28;20116;-72
2021/12/16 12:08:28;;;;;;;22.50;17.48;;;;;;;11.92;100.00;103673.78;5252054;28;20020;-72
2021/12/16 12:11:16;;;;;;;24.98;16.25;;;;;;;11.97;100.00;103674.47;5246621;28;20025;-72
2021/12/16 12:14:01;;;;;;;21.52;17.02;;;;;;;11.93;100.00;103673.75;5244491;28;20087;-72
2021/12/16 12:16:42;;;;;;;22.58;16.35;;;;;;;11.92;100.00;103676.44;5241268;28;20111;-72
2021/12/16 12:19:16;;;;;;;23.25;17.77;;;;;;;11.96;100.00;103666.63;5241520;28;20025;-72
2021/12/16 12:22:00;;;;;;;22.52;16.95;;;;;;;11.95;100.00;103665.78;5246528;28;20119;-72
2021/12/16 12:24:38;;;;;;;24.38;16.42;;;;;;;12.02;100.00;103677.72;5242375;28;20079;-72
2021/12/16 12:27:23;;;;;;;22.25;15.15;;;;;;;12.07;100.00;103672.25;5241277;28;20075;-72
2021/12/16 12:29:57;;;;;;;19.38;14.73;;;;;;;11.89;100.00;103661.69;5242786;28;20487;-72
2021/12/16 12:32:43;;;;;;;20.52;15.13;;;;;;;12.03;100.00;103673.31;5246822;28;20535;-72
2021/12/16 12:35:21;;;;;;;22.45;16.23;;;;;;;11.97;100.00;103676.22;5245251;28;20029;-72
2021/12/16 12:37:58;;;;;;;19.10;15.52;;;;;;;12.01;100.00;103665.50;5246197;28;20041;-72
2021/12/16 12:40:38;;;;;;;22.30;16.55;;;;;;;12.07;100.00;103664.38;5247392;28;20033;-72
2021/12/16 12:43:09;;;;;;;19.77;15.93;;;;;;;11.93;100.00;103663.25;5244499;28;20033;-72
2021/12/16 12:45:42;;;;;;;22.77;15.75;;;;;;;12.01;100.00;103667.25;5243215;28;20036;-72
2021/12/16 12:48:17;;;;;;;21.83;15.70;;;;;;;12.07;100.00;103669.63;5244061;28;20941;-72
2021/12/16 12:50:51;;;;;;;24.45;15.27;;;;;;;12.05;100.00;103667.06;5243500;28;20013;-72
2021/12/16 12:53:49;;;;;;;18.98;15.70;;;;;;;12.23;100.00;103672.38;5241847;28;20116;-72
2021/12/16 12:56:27;;;;;;;22.08;16.08;;;;;;;12.13;100.00;103664.09;5250278;28;20029;-71
2021/12/16 12:59:06;;;;;;;26.83;16.80;;;;;;;12.26;100.00;103669.63;5249191;28;20037;-71
2021/12/16 13:01:48;;;;;;;25.17;16.98;;;;;;;12.14;100.00;103647.41;5249456;28;20029;-72
2021/12/16 13:04:25;;;;;;;22.98;15.82;;;;;;;12.26;100.00;103662.59;5251237;28;20049;-71
2021/12/16 13:07:08;;;;;;;22.35;15.38;;;;;;;12.36;100.00;103653.34;5248234;28;20017;-71
2021/12/16 13:09:44;;;;;;;;;;;;;;;12.73;100.00;103655.97;5251901;28;20021;-71
2021/12/16 13:12:31;;;;;;;22.13;15.10;;;;;;;12.31;100.00;103649.22;5246138;28;19916;-71
2021/12/16 13:15:21;;;;;;;21.23;15.80;;;;;;;12.40;100.00;103657.53;5244222;28;20059;-71
2021/12/16 13:27:07;;;;;;;18.08;13.52;;;;;;;12.29;100.00;103658.97;5225935;28;20509;-72
2021/12/16 13:29:43;;;;;;;20.73;12.02;;;;;;;12.26;100.00;103657.31;5242011;28;20041;-72
2021/12/16 13:33:00;;;;;;;17.42;11.75;;;;;;;12.38;100.00;103646.22;5248986;28;20083;-71
2021/12/16 13:37:55;;;;;;;17.98;11.88;;;;;;;12.36;100.00;103655.97;5250196;28;20044;-71
2021/12/16 13:40:31;;;;;;;16.35;11.68;;;;;;;12.38;100.00;103662.00;5246860;28;20036;-71
2021/12/16 13:43:13;;;;;;;18.98;12.05;;;;;;;12.46;100.00;103659.00;5247398;28;20059;-71
2021/12/16 13:46:29;;;;;;;16.38;11.80;;;;;;;12.43;100.00;103664.44;5249267;28;20021;-71
2021/12/16 14:03:48;;;;;;;17.55;11.50;;;;;;;12.54;100.00;103662.13;5247858;28;20037;-72
2021/12/16 14:06:37;;;;;;;17.83;11.55;;;;;;;12.54;100.00;103669.16;5248486;28;20028;-71
2021/12/16 14:09:22;;;;;;;16.00;11.10;;;;;;;12.47;100.00;103673.03;5252484;28;20025;-71
2021/12/16 14:23:40;;;;;;;13.63;10.10;;;;;;;12.33;100.00;103676.28;5245553;28;20037;-71
2021/12/16 14:40:14;;;;;;;13.65;8.35;;;;;;;12.07;100.00;103690.66;5252260;28;20063;-71
2021/12/16 14:48:20;;;;;;;17.10;9.23;;;;;;;12.06;100.00;103694.19;5247470;28;20164;-71
2021/12/16 14:51:08;;;;;;;16.92;10.48;;;;;;;12.11;100.00;103700.09;5247628;28;20028;-70
2021/12/16 14:53:44;;;;;;;14.90;9.35;;;;;;;11.94;100.00;103703.50;5244916;28;20029;-70
2021/12/16 14:56:23;;;;;;;21.25;9.95;;;;;;;11.81;100.00;103700.50;5234115;28;20806;-70
2021/12/16 14:59:14;;;;;;;19.08;11.10;;;;;;;11.95;100.00;103685.94;5247545;28;20029;-71
2021/12/16 15:01:49;;;;;;;13.50;8.82;;;;;;;11.72;100.00;103694.81;5247314;28;20113;-71
2021/12/16 15:04:25;;;;;;;18.65;10.80;;;;;;;11.63;100.00;103699.56;5243472;28;20502;-71
2021/12/16 15:07:04;;;;;;;16.30;9.65;;;;;;;11.63;100.00;103704.81;5249767;28;20321;-71
2021/12/16 15:09:38;;;;;;;13.68;9.45;;;;;;;11.50;100.00;103698.38;5245208;28;20056;-71